Time;durP1;ratioP1;P1;durP2;ratioP2;P2;SDS_P1;SDS_P2;PMS_P1;PMS_P2;Temp;Humidity;BMP_temperature;BMP_pressure;BME280_temperature;BME280_humidity;BME280_pressure;Samples;Min_cycle;Max_cycle;Signal;HPM_P1;HPM_P2
2021/12/15 00:01:47;;;;;;;24.05;12.10;;;;;;;;;;4901971;29;20044;-73
2021/12/15 00:04:14;;;;;;;24.73;11.45;;;;;;;;;;4901469;29;20056;-73
2021/12/15 00:06:40;;;;;;;25.48;12.63;;;;;;;;;;4901578;29;20036;-73
2021/12/15 00:09:08;;;;;;;25.17;12.73;;;;;;;;;;4901660;29;20047;-73
2021/12/15 00:11:37;;;;;;;23.55;11.77;;;;;;;;;;4901356;28;20055;-73
2021/12/15 00:14:08;;;;;;;25.85;13.02;;;;;;;;;;4901898;29;20114;-73
2021/12/15 00:16:34;;;;;;;26.95;13.07;;;;;;;;;;4904495;29;20036;-73
2021/12/15 00:19:00;;;;;;;24.67;12.80;;;;;;;;;;4904787;29;20450;-73
2021/12/15 00:21:26;;;;;;;25.83;12.00;;;;;;;;;;4905174;28;20122;-73
2021/12/15 00:23:51;;;;;;;27.20;11.95;;;;;;;;;;4904274;29;20040;-73
2021/12/15 00:26:18;;;;;;;25.13;12.40;;;;;;;;;;4904899;29;20102;-73
2021/12/15 00:28:45;;;;;;;23.77;11.90;;;;;;;;;;4904530;29;20031;-73
2021/12/15 00:31:11;;;;;;;26.30;12.85;;;;;;;;;;4905054;29;20044;-73
2021/12/15 00:33:38;;;;;;;25.33;12.00;;;;;;;;;;4905619;28;20691;-73
2021/12/15 00:36:05;;;;;;;25.45;12.48;;;;;;;;;;4904477;29;20044;-73
2021/12/15 00:38:32;;;;;;;23.23;11.10;;;;;;;;;;4902803;29;20047;-73
2021/12/15 00:40:57;;;;;;;25.40;12.25;;;;;;;;;;4903461;29;20040;-73
2021/12/15 00:43:25;;;;;;;23.98;12.02;;;;;;;;;;4904101;28;20050;-73
2021/12/15 00:45:52;;;;;;;22.40;11.90;;;;;;;;;;4904409;29;20663;-73
2021/12/15 00:48:18;;;;;;;22.77;11.95;;;;;;;;;;4902993;29;20136;-74
2021/12/15 00:50:46;;;;;;;21.88;11.13;;;;;;;;;;4904492;29;20043;-74
2021/12/15 00:53:12;;;;;;;26.67;11.75;;;;;;;;;;4904347;29;20047;-74
2021/12/15 00:55:39;;;;;;;24.88;11.63;;;;;;;;;;4904529;28;20086;-74
2021/12/15 00:58:06;;;;;;;23.00;11.50;;;;;;;;;;4902545;28;20090;-74
2021/12/15 01:00:36;;;;;;;22.17;12.02;;;;;;;;;;4902569;29;20044;-73
2021/12/15 01:03:03;;;;;;;27.60;13.18;;;;;;;;;;4904350;29;20045;-74
2021/12/15 01:05:34;;;;;;;27.90;12.48;;;;;;;;;;4904011;28;20132;-73
2021/12/15 01:08:01;;;;;;;24.33;11.70;;;;;;;;;;4902658;28;20044;-74
2021/12/15 01:10:40;;;;;;;21.00;10.68;;;;;;;;;;4904513;29;20036;-74
2021/12/15 01:21:04;;;;;;;18.95;9.93;;;;;;;;;;4902515;28;20391;-73
2021/12/15 01:23:31;;;;;;;21.48;11.07;;;;;;;;;;4902538;29;20222;-73
2021/12/15 01:26:06;;;;;;;22.77;11.52;;;;;;;;;;4901071;28;20094;-73
2021/12/15 01:28:33;;;;;;;24.10;11.80;;;;;;;;;;4918126;28;20040;-73
2021/12/15 01:31:00;;;;;;;19.85;10.05;;;;;;;;;;4902390;29;20123;-73
2021/12/15 01:33:27;;;;;;;22.55;11.77;;;;;;;;;;4902614;29;20059;-73
2021/12/15 01:35:55;;;;;;;18.98;10.27;;;;;;;;;;4902011;28;20040;-73
2021/12/15 01:38:26;;;;;;;19.38;10.60;;;;;;;;;;4902402;28;20451;-73
2021/12/15 01:40:52;;;;;;;20.75;10.75;;;;;;;;;;4902320;29;20040;-73
2021/12/15 01:43:48;;;;;;;22.58;11.05;;;;;;;;;;4902324;28;20036;-73
2021/12/15 01:49:05;;;;;;;19.58;11.10;;;;;;;;;;4903591;28;20050;-74
2021/12/15 01:51:31;;;;;;;21.45;11.15;;;;;;;;;;4902461;28;20042;-73
2021/12/15 01:53:56;;;;;;;19.40;11.18;;;;;;;;;;4902253;29;20036;-73
2021/12/15 01:56:22;;;;;;;21.50;11.88;;;;;;;;;;4901542;29;20406;-73
2021/12/15 01:58:48;;;;;;;19.90;11.35;;;;;;;;;;4902171;29;20406;-73
2021/12/15 02:01:14;;;;;;;22.85;11.88;;;;;;;;;;4902246;28;20774;-73
2021/12/15 02:03:40;;;;;;;22.25;11.60;;;;;;;;;;4902040;29;20490;-73
2021/12/15 02:06:09;;;;;;;23.08;12.10;;;;;;;;;;4903000;29;20508;-73
2021/12/15 02:08:35;;;;;;;26.73;12.35;;;;;;;;;;4901893;29;20040;-73
2021/12/15 02:11:06;;;;;;;23.50;11.52;;;;;;;;;;4901919;29;20119;-73
2021/12/15 02:13:33;;;;;;;21.98;10.73;;;;;;;;;;4903590;28;20131;-73
2021/12/15 02:16:01;;;;;;;22.38;11.27;;;;;;;;;;4901536;29;20042;-73
2021/12/15 02:18:34;;;;;;;20.95;10.30;;;;;;;;;;4901810;29;20082;-73
2021/12/15 02:21:03;;;;;;;21.38;11.23;;;;;;;;;;4886086;29;20487;-73
2021/12/15 02:23:37;;;;;;;21.48;11.10;;;;;;;;;;4901651;28;20043;-73
2021/12/15 02:26:08;;;;;;;21.75;11.43;;;;;;;;;;4901261;29;20099;-73
2021/12/15 02:28:37;;;;;;;20.33;10.27;;;;;;;;;;4901138;29;20047;-74
2021/12/15 02:31:13;;;;;;;17.05;9.65;;;;;;;;;;4901634;29;20042;-73
2021/12/15 02:38:51;;;;;;;21.65;11.15;;;;;;;;;;4901087;29;20032;-74
2021/12/15 02:41:20;;;;;;;19.65;10.73;;;;;;;;;;4901559;28;20102;-73
2021/12/15 02:44:01;;;;;;;22.60;11.82;;;;;;;;;;4901224;28;20044;-73
2021/12/15 02:46:29;;;;;;;17.30;9.88;;;;;;;;;;4897723;28;20036;-73
2021/12/15 02:48:55;;;;;;;22.33;11.35;;;;;;;;;;4902245;29;20032;-73
2021/12/15 02:51:22;;;;;;;19.80;10.45;;;;;;;;;;4902602;29;20430;-73
2021/12/15 02:53:48;;;;;;;21.42;10.60;;;;;;;;;;4902742;29;20051;-73
2021/12/15 02:56:14;;;;;;;19.35;10.07;;;;;;;;;;4901998;28;20063;-73
2021/12/15 02:58:49;;;;;;;26.48;11.27;;;;;;;;;;4902704;29;20139;-73
2021/12/15 03:01:23;;;;;;;23.42;12.00;;;;;;;;;;4902388;29;20415;-73
2021/12/15 03:17:38;;;;;;;22.55;10.70;;;;;;;;;;4902239;28;20091;-73
2021/12/15 03:20:05;;;;;;;25.50;11.75;;;;;;;;;;4902517;29;20492;-73
2021/12/15 03:22:30;;;;;;;23.08;11.70;;;;;;;;;;4902007;29;20594;-73
2021/12/15 03:24:56;;;;;;;21.95;10.93;;;;;;;;;;4902407;29;20032;-73
2021/12/15 03:33:13;;;;;;;24.83;11.50;;;;;;;;;;4902530;29;20063;-73
2021/12/15 03:35:48;;;;;;;22.65;11.90;;;;;;;;;;4901882;28;20133;-73
2021/12/15 03:38:13;;;;;;;24.60;11.85;;;;;;;;;;4902349;29;20051;-72
2021/12/15 03:40:42;;;;;;;22.38;11.25;;;;;;;;;;4902192;28;20040;-72
2021/12/15 03:43:15;;;;;;;23.77;12.38;;;;;;;;;;4902087;28;20055;-73
2021/12/15 03:45:49;;;;;;;23.40;11.50;;;;;;;;;;4901909;29;20086;-72
2021/12/15 03:48:17;;;;;;;25.63;12.45;;;;;;;;;;4901989;29;20868;-73
2021/12/15 03:50:44;;;;;;;21.08;10.55;;;;;;;;;;4905495;28;20103;-72
2021/12/15 03:53:11;;;;;;;18.00;9.80;;;;;;;;;;4905230;29;20130;-73
2021/12/15 03:55:37;;;;;;;16.30;9.38;;;;;;;;;;4904772;29;20047;-72
2021/12/15 03:58:09;;;;;;;16.15;9.52;;;;;;;;;;4903854;29;20040;-73
2021/12/15 04:00:37;;;;;;;17.60;9.40;;;;;;;;;;4905140;29;20032;-73
2021/12/15 04:03:02;;;;;;;15.88;8.98;;;;;;;;;;4907116;28;20127;-73
2021/12/15 04:05:28;;;;;;;16.02;9.25;;;;;;;;;;4903529;29;20430;-73
2021/12/15 04:07:54;;;;;;;17.48;9.13;;;;;;;;;;4905205;29;20040;-73
2021/12/15 04:10:24;;;;;;;17.48;9.10;;;;;;;;;;4905408;29;20044;-73
2021/12/15 04:12:50;;;;;;;18.75;10.05;;;;;;;;;;4905175;28;20032;-74
2021/12/15 04:18:01;;;;;;;15.95;9.02;;;;;;;;;;4905209;29;20068;-73
2021/12/15 04:20:30;;;;;;;21.30;11.05;;;;;;;;;;4905111;29;20122;-73
2021/12/15 04:22:56;;;;;;;22.10;10.98;;;;;;;;;;4904615;29;20043;-73
2021/12/15 04:25:24;;;;;;;26.40;12.50;;;;;;;;;;4905774;28;20028;-73
2021/12/15 04:28:12;;;;;;;28.88;12.43;;;;;;;;;;4904631;29;20048;-73
2021/12/15 04:30:43;;;;;;;24.13;12.02;;;;;;;;;;4904442;29;20146;-72
2021/12/15 04:33:42;;;;;;;24.33;11.35;;;;;;;;;;4905005;29;20465;-73
2021/12/15 04:36:09;;;;;;;23.67;11.60;;;;;;;;;;4907331;28;20415;-72
2021/12/15 04:38:36;;;;;;;25.77;11.20;;;;;;;;;;4904712;29;20040;-72
2021/12/15 04:41:06;;;;;;;20.40;10.40;;;;;;;;;;4905035;28;20032;-72
2021/12/15 04:43:34;;;;;;;24.38;11.60;;;;;;;;;;4904716;29;20040;-72
2021/12/15 04:46:03;;;;;;;20.15;10.57;;;;;;;;;;4903305;28;20510;-73
2021/12/15 04:48:28;;;;;;;17.95;10.40;;;;;;;;;;4903752;29;20433;-72
2021/12/15 04:50:54;;;;;;;18.98;10.43;;;;;;;;;;4904191;29;20046;-74
2021/12/15 04:53:21;;;;;;;20.25;9.52;;;;;;;;;;4904809;29;20040;-74
2021/12/15 04:55:48;;;;;;;17.85;10.00;;;;;;;;;;4902721;28;20031;-74
2021/12/15 04:58:14;;;;;;;20.63;9.70;;;;;;;;;;4884765;28;20048;-74
2021/12/15 05:00:47;;;;;;;20.08;10.05;;;;;;;;;;4904200;29;20040;-74
2021/12/15 05:03:13;;;;;;;20.15;10.57;;;;;;;;;;4904324;29;20040;-74
2021/12/15 05:05:39;;;;;;;19.63;11.23;;;;;;;;;;4904409;29;20054;-74
2021/12/15 05:08:05;;;;;;;20.23;10.52;;;;;;;;;;4904584;28;20215;-74
2021/12/15 05:10:31;;;;;;;18.98;10.30;;;;;;;;;;4904246;29;20123;-73
2021/12/15 05:12:58;;;;;;;22.63;11.75;;;;;;;;;;4904327;29;20127;-74
2021/12/15 05:15:25;;;;;;;22.60;11.52;;;;;;;;;;4904861;29;20040;-73
2021/12/15 05:17:51;;;;;;;20.77;11.27;;;;;;;;;;4905036;28;20040;-74
2021/12/15 05:20:17;;;;;;;21.65;11.35;;;;;;;;;;4904455;28;20691;-74
2021/12/15 05:22:43;;;;;;;21.98;11.82;;;;;;;;;;4907911;28;20054;-74
2021/12/15 05:25:09;;;;;;;24.77;12.15;;;;;;;;;;4906319;28;20040;-74
2021/12/15 05:27:35;;;;;;;27.48;13.07;;;;;;;;;;4905999;28;20086;-74
2021/12/15 05:30:00;;;;;;;28.48;13.23;;;;;;;;;;4906969;28;20040;-74
2021/12/15 05:32:26;;;;;;;31.15;14.82;;;;;;;;;;4906166;28;20083;-74
2021/12/15 05:34:56;;;;;;;32.78;14.68;;;;;;;;;;4909699;28;20051;-73
2021/12/15 05:37:22;;;;;;;38.70;15.73;;;;;;;;;;4909400;28;20048;-73
2021/12/15 05:39:51;;;;;;;40.60;14.90;;;;;;;;;;4906755;28;20046;-73
2021/12/15 05:42:18;;;;;;;37.22;13.52;;;;;;;;;;4904497;28;20094;-73
2021/12/15 05:44:45;;;;;;;34.78;14.07;;;;;;;;;;4903591;29;20557;-73
2021/12/15 05:47:10;;;;;;;31.83;13.30;;;;;;;;;;4904949;28;20047;-73
2021/12/15 05:49:36;;;;;;;33.83;14.50;;;;;;;;;;4908884;28;20040;-73
2021/12/15 05:52:03;;;;;;;32.17;12.95;;;;;;;;;;4911359;28;20044;-73
2021/12/15 05:54:29;;;;;;;29.10;13.00;;;;;;;;;;4906619;28;20043;-73
2021/12/15 05:56:55;;;;;;;26.27;11.98;;;;;;;;;;4907715;28;20044;-74
2021/12/15 05:59:21;;;;;;;27.38;12.82;;;;;;;;;;4908376;28;20037;-72
2021/12/15 06:01:46;;;;;;;23.52;11.52;;;;;;;;;;4901167;28;20070;-74
2021/12/15 06:04:13;;;;;;;25.50;12.40;;;;;;;;;;4903805;28;20415;-74
2021/12/15 06:06:39;;;;;;;27.52;13.52;;;;;;;;;;4903652;29;20067;-74
2021/12/15 06:09:07;;;;;;;41.50;14.82;;;;;;;;;;4903324;29;20131;-75
2021/12/15 06:11:33;;;;;;;36.92;14.13;;;;;;;;;;4902311;29;20182;-75
2021/12/15 06:13:59;;;;;;;36.35;14.38;;;;;;;;;;4901674;28;20047;-80
2021/12/15 06:16:24;;;;;;;32.42;14.82;;;;;;;;;;4898042;28;20072;-75
2021/12/15 06:18:51;;;;;;;39.13;15.38;;;;;;;;;;4900601;29;20119;-75
2021/12/15 06:21:19;;;;;;;38.22;13.43;;;;;;;;;;4901634;29;20534;-75
2021/12/15 06:23:44;;;;;;;36.13;14.50;;;;;;;;;;4901321;28;20044;-74
2021/12/15 06:26:10;;;;;;;42.55;15.43;;;;;;;;;;4901263;28;20076;-75
2021/12/15 06:28:37;;;;;;;39.67;14.95;;;;;;;;;;4902270;29;20089;-75
2021/12/15 06:31:08;;;;;;;39.55;16.50;;;;;;;;;;4902920;29;20040;-75
2021/12/15 06:33:35;;;;;;;55.45;18.30;;;;;;;;;;4902932;29;20047;-75
2021/12/15 06:36:03;;;;;;;55.63;18.88;;;;;;;;;;4903209;28;20044;-75
2021/12/15 06:38:41;;;;;;;49.83;17.35;;;;;;;;;;4903040;29;20554;-76
2021/12/15 06:41:09;;;;;;;51.40;17.45;;;;;;;;;;4902933;29;20055;-75
2021/12/15 06:43:37;;;;;;;42.40;15.68;;;;;;;;;;4903605;29;20047;-74
2021/12/15 06:59:30;;;;;;;51.47;18.63;;;;;;;;;;4908320;28;20040;-72
2021/12/15 07:01:56;;;;;;;49.75;17.17;;;;;;;;;;4902262;28;20059;-71
2021/12/15 07:04:22;;;;;;;52.00;16.98;;;;;;;;;;4904017;28;21008;-72
2021/12/15 07:06:49;;;;;;;45.90;16.05;;;;;;;;;;4902248;28;20043;-71
2021/12/15 07:09:16;;;;;;;46.95;16.08;;;;;;;;;;4901997;28;20517;-73
2021/12/15 07:11:42;;;;;;;41.83;15.20;;;;;;;;;;4900901;28;20040;-77
2021/12/15 07:14:08;;;;;;;44.03;15.43;;;;;;;;;;4901994;29;20123;-72
2021/12/15 07:16:34;;;;;;;39.45;16.10;;;;;;;;;;4900351;29;20178;-74
2021/12/15 07:19:10;;;;;;;37.58;13.85;;;;;;;;;;4902959;29;20044;-74
2021/12/15 07:21:37;;;;;;;47.55;15.40;;;;;;;;;;4901471;29;20036;-72
2021/12/15 07:24:02;;;;;;;49.83;15.73;;;;;;;;;;4904010;29;20058;-71
2021/12/15 07:26:28;;;;;;;38.58;15.00;;;;;;;;;;4905573;28;20407;-71
2021/12/15 07:28:53;;;;;;;38.13;14.70;;;;;;;;;;4905942;29;20115;-72
2021/12/15 07:31:19;;;;;;;35.40;13.80;;;;;;;;;;4905888;28;20068;-72
2021/12/15 07:33:46;;;;;;;44.88;14.95;;;;;;;;;;4905687;29;20036;-74
2021/12/15 07:36:13;;;;;;;36.95;14.57;;;;;;;;;;4905291;29;20486;-76
2021/12/15 07:38:41;;;;;;;45.17;14.52;;;;;;;;;;4905767;29;20040;-72
2021/12/15 07:41:24;;;;;;;40.15;14.00;;;;;;;;;;4903699;28;20040;-70
2021/12/15 07:43:51;;;;;;;38.45;14.13;;;;;;;;;;4905272;28;20074;-74
2021/12/15 07:46:16;;;;;;;35.35;13.90;;;;;;;;;;4905084;29;20487;-72
2021/12/15 07:48:41;;;;;;;51.72;16.45;;;;;;;;;;4905890;29;20067;-73
2021/12/15 07:51:09;;;;;;;59.80;25.10;;;;;;;;;;4905918;29;20047;-71
2021/12/15 07:53:37;;;;;;;58.60;17.33;;;;;;;;;;4906127;28;20693;-73
2021/12/15 07:56:03;;;;;;;53.20;15.93;;;;;;;;;;4905241;29;20545;-74
2021/12/15 07:58:29;;;;;;;55.30;17.58;;;;;;;;;;4905711;28;20036;-73
2021/12/15 08:00:58;;;;;;;43.55;15.00;;;;;;;;;;4905561;29;21106;-71
2021/12/15 08:03:24;;;;;;;36.97;14.20;;;;;;;;;;4907346;28;20036;-71
2021/12/15 08:05:52;;;;;;;47.58;15.02;;;;;;;;;;4904434;29;20036;-73
2021/12/15 08:08:18;;;;;;;55.67;16.08;;;;;;;;;;4903541;29;20036;-74
2021/12/15 08:10:44;;;;;;;45.83;15.38;;;;;;;;;;4905067;29;20039;-72
2021/12/15 08:13:11;;;;;;;52.00;16.05;;;;;;;;;;4904860;29;20040;-71
2021/12/15 08:15:38;;;;;;;60.78;16.52;;;;;;;;;;4904186;28;20070;-70
2021/12/15 08:18:04;;;;;;;46.88;14.85;;;;;;;;;;4905142;29;20040;-71
2021/12/15 08:20:31;;;;;;;66.93;17.92;;;;;;;;;;4904794;29;20071;-71
2021/12/15 08:22:57;;;;;;;49.03;14.05;;;;;;;;;;4907103;28;20083;-72
2021/12/15 08:25:24;;;;;;;37.42;13.45;;;;;;;;;;4907282;28;20131;-72
2021/12/15 08:27:51;;;;;;;28.42;11.55;;;;;;;;;;4904047;29;20032;-71
2021/12/15 08:30:21;;;;;;;35.88;13.02;;;;;;;;;;4904419;29;20056;-72
2021/12/15 08:32:54;;;;;;;36.88;12.98;;;;;;;;;;4904944;28;20143;-73
2021/12/15 08:35:23;;;;;;;25.52;10.57;;;;;;;;;;4904128;28;20032;-72
2021/12/15 08:37:48;;;;;;;27.50;10.00;;;;;;;;;;4904862;28;20036;-72
2021/12/15 08:40:16;;;;;;;23.40;9.93;;;;;;;;;;4904700;29;20102;-72
2021/12/15 08:42:41;;;;;;;26.90;9.57;;;;;;;;;;4904591;29;20063;-72
2021/12/15 08:45:08;;;;;;;29.75;11.05;;;;;;;;;;4904722;29;20131;-72
2021/12/15 08:47:34;;;;;;;30.55;9.75;;;;;;;;;;4904639;28;20036;-71
2021/12/15 08:50:00;;;;;;;24.77;9.43;;;;;;;;;;4904432;29;20036;-71
2021/12/15 08:52:25;;;;;;;24.85;7.85;;;;;;;;;;4903412;29;20447;-73
2021/12/15 08:54:51;;;;;;;20.88;9.02;;;;;;;;;;4903654;29;20043;-72
2021/12/15 08:57:16;;;;;;;20.10;8.23;;;;;;;;;;4904477;29;20797;-76
2021/12/15 08:59:42;;;;;;;17.60;8.38;;;;;;;;;;4904875;28;20054;-75
2021/12/15 09:02:07;;;;;;;15.50;7.53;;;;;;;;;;4903616;29;20082;-74
2021/12/15 09:04:33;;;;;;;17.27;7.20;;;;;;;;;;4904701;28;20040;-73
2021/12/15 09:06:59;;;;;;;15.65;6.97;;;;;;;;;;4903260;28;20046;-74
2021/12/15 09:09:25;;;;;;;19.73;8.20;;;;;;;;;;4905243;28;20040;-73
2021/12/15 09:11:52;;;;;;;21.77;8.82;;;;;;;;;;4904793;28;20036;-73
2021/12/15 09:14:18;;;;;;;17.52;7.28;;;;;;;;;;4909354;28;20872;-74
2021/12/15 09:16:47;;;;;;;18.88;7.63;;;;;;;;;;4908943;28;20040;-74
2021/12/15 09:19:13;;;;;;;20.70;8.00;;;;;;;;;;4904040;29;20148;-73
2021/12/15 09:21:42;;;;;;;20.92;8.80;;;;;;;;;;4904750;28;20024;-73
2021/12/15 09:24:10;;;;;;;21.77;8.00;;;;;;;;;;4904077;29;20041;-74
2021/12/15 09:26:36;;;;;;;22.33;7.25;;;;;;;;;;4902028;29;20131;-74
2021/12/15 09:29:03;;;;;;;14.77;7.22;;;;;;;;;;4904155;28;20094;-74
2021/12/15 09:31:29;;;;;;;21.08;7.78;;;;;;;;;;4904427;28;20414;-74
2021/12/15 09:33:56;;;;;;;18.83;6.43;;;;;;;;;;4902078;29;20032;-74
2021/12/15 09:36:22;;;;;;;12.80;5.65;;;;;;;;;;4902541;28;20051;-74
2021/12/15 09:38:53;;;;;;;15.65;6.10;;;;;;;;;;4904225;29;20051;-73
2021/12/15 09:41:19;;;;;;;11.32;5.05;;;;;;;;;;4886970;29;20135;-72
2021/12/15 09:43:48;;;;;;;11.75;5.25;;;;;;;;;;4904309;28;20032;-74
2021/12/15 09:46:27;;;;;;;13.25;5.18;;;;;;;;;;4902863;29;20556;-72
2021/12/15 09:57:30;;;;;;;12.32;3.80;;;;;;;;;;4904436;28;20047;-72
2021/12/15 10:02:58;;;;;;;6.38;3.30;;;;;;;;;;4903387;28;20040;-74
2021/12/15 10:19:34;;;;;;;8.75;4.55;;;;;;;;;;5038631;28;20486;-72
2021/12/15 10:22:04;;;;;;;9.85;4.03;;;;;;;;;;5039225;28;20080;-73
2021/12/15 10:24:45;;;;;;;9.30;4.60;;;;;;;;;;5038547;28;20175;-73
2021/12/15 10:27:12;;;;;;;5.97;3.40;;;;;;;;;;5036538;28;20037;-71
2021/12/15 10:29:56;;;;;;;7.75;3.75;;;;;;;;;;5038599;28;20041;-71
2021/12/15 10:32:28;;;;;;;9.52;3.78;;;;;;;;;;5038283;28;20498;-73
2021/12/15 10:35:06;;;;;;;9.40;4.07;;;;;;;;;;5038509;28;20041;-72
2021/12/15 10:37:31;;;;;;;9.13;3.80;;;;;;;;;;5037865;28;20453;-72
2021/12/15 10:40:18;;;;;;;7.50;4.63;;;;;;;;;;5038628;28;20969;-74
2021/12/15 10:42:45;;;;;;;6.70;3.92;;;;;;;;;;5038484;28;20067;-72
2021/12/15 10:45:13;;;;;;;8.40;4.40;;;;;;;;;;5037441;28;20029;-73
2021/12/15 10:47:50;;;;;;;5.78;3.90;;;;;;;;;;5038020;28;20041;-73
2021/12/15 10:50:21;;;;;;;7.38;4.32;;;;;;;;;;5037264;28;20041;-73
2021/12/15 10:52:58;;;;;;;5.45;3.90;;;;;;;;;;5037643;28;20032;-76
2021/12/15 10:55:33;;;;;;;6.25;4.05;;;;;;;;;;5037598;28;20040;-73
2021/12/15 10:58:00;;;;;;;5.93;3.67;;;;;;;;;;5037998;28;20052;-72
2021/12/15 11:00:32;;;;;;;8.90;4.30;;;;;;;;;;5037120;28;20036;-74
2021/12/15 11:03:14;;;;;;;10.30;5.00;;;;;;;;;;5037929;28;20490;-73
2021/12/15 11:05:40;;;;;;;9.82;4.95;;;;;;;;;;5037060;28;20033;-73
2021/12/15 11:08:06;;;;;;;7.40;4.35;;;;;;;;;;5037722;28;20039;-74
2021/12/15 11:10:35;;;;;;;8.90;4.18;;;;;;;;;;5026093;28;20048;-74
2021/12/15 11:13:10;;;;;;;6.93;4.30;;;;;;;;;;5036406;28;20151;-73
2021/12/15 11:15:41;;;;;;;7.82;4.88;;;;;;;;;;5037005;28;20037;-75
2021/12/15 11:18:17;;;;;;;7.95;4.30;;;;;;;;;;5037040;28;20044;-75
2021/12/15 11:20:55;;;;;;;7.38;4.57;;;;;;;;;;5037681;28;20385;-71
2021/12/15 11:23:26;;;;;;;7.45;4.90;;;;;;;;;;5036346;28;20482;-73
2021/12/15 11:25:53;;;;;;;14.10;6.90;;;;;;;;;;5036248;28;20033;-73
2021/12/15 11:28:32;;;;;;;8.75;5.43;;;;;;;;;;5037528;28;20056;-74
2021/12/15 11:31:06;;;;;;;11.93;5.43;;;;;;;;;;5023544;28;20103;-74
2021/12/15 11:33:41;;;;;;;11.10;5.80;;;;;;;;;;5023282;28;20044;-73
2021/12/15 11:36:13;;;;;;;9.55;4.75;;;;;;;;;;5023887;28;20033;-71
2021/12/15 11:38:42;;;;;;;8.07;4.72;;;;;;;;;;5023686;28;20041;-72
2021/12/15 11:41:23;;;;;;;9.90;4.72;;;;;;;;;;5023895;28;20037;-73
2021/12/15 11:43:52;;;;;;;10.38;5.35;;;;;;;;;;5021585;28;20045;-72
2021/12/15 11:46:30;;;;;;;13.68;5.40;;;;;;;;;;5022518;28;20049;-73
2021/12/15 11:48:55;;;;;;;10.98;5.10;;;;;;;;;;5019465;28;20478;-71
2021/12/15 11:51:35;;;;;;;9.15;5.50;;;;;;;;;;5024151;28;20068;-73
2021/12/15 11:54:01;;;;;;;13.45;5.72;;;;;;;;;;5023614;28;20398;-72
2021/12/15 11:56:33;;;;;;;8.65;5.35;;;;;;;;;;5021656;28;20611;-74
2021/12/15 11:59:29;;;;;;;10.38;5.47;;;;;;;;;;5023151;28;20102;-71
2021/12/15 12:02:07;;;;;;;7.90;5.13;;;;;;;;;;5004549;28;21140;-70
2021/12/15 12:04:43;;;;;;;9.15;5.18;;;;;;;;;;5022751;28;20033;-71
2021/12/15 12:07:14;;;;;;;9.40;5.38;;;;;;;;;;5021496;28;20038;-70
2021/12/15 12:09:43;;;;;;;8.93;5.15;;;;;;;;;;5022946;28;20049;-71
2021/12/15 12:12:10;;;;;;;9.18;5.82;;;;;;;;;;5024011;28;20037;-71
2021/12/15 12:17:13;;;;;;;7.32;4.82;;;;;;;;;;5022155;28;20045;-71
2021/12/15 12:19:46;;;;;;;8.05;4.72;;;;;;;;;;5023064;28;20087;-72
2021/12/15 12:22:13;;;;;;;11.10;4.88;;;;;;;;;;5023632;28;20821;-73
2021/12/15 12:24:39;;;;;;;8.10;5.03;;;;;;;;;;5022911;28;20091;-72
2021/12/15 12:27:06;;;;;;;9.27;5.82;;;;;;;;;;5022611;28;20045;-73
2021/12/15 12:29:32;;;;;;;9.43;5.78;;;;;;;;;;5022547;28;20091;-73
2021/12/15 12:31:58;;;;;;;12.38;5.55;;;;;;;;;;5022997;28;20482;-73
2021/12/15 12:34:23;;;;;;;12.25;5.25;;;;;;;;;;5022257;28;20048;-74
2021/12/15 12:36:49;;;;;;;10.57;5.00;;;;;;;;;;5022270;28;20115;-71
2021/12/15 12:39:17;;;;;;;8.63;4.72;;;;;;;;;;5021986;28;20522;-72
2021/12/15 12:41:45;;;;;;;7.88;5.30;;;;;;;;;;5021390;28;20044;-72
2021/12/15 12:44:13;;;;;;;7.22;4.50;;;;;;;;;;5022702;28;21015;-73
2021/12/15 12:46:54;;;;;;;8.32;4.50;;;;;;;;;;5021599;28;20036;-72
2021/12/15 12:49:50;;;;;;;8.57;4.73;;;;;;;;;;5021837;28;20112;-73
2021/12/15 13:00:28;;;;;;;6.50;4.25;;;;;;;;;;5021385;28;20045;-73
2021/12/15 13:03:07;;;;;;;11.35;5.18;;;;;;;;;;5022582;28;20044;-73
2021/12/15 13:05:33;;;;;;;8.40;5.00;;;;;;;;;;5022057;28;20479;-74
2021/12/15 13:08:02;;;;;;;9.77;4.75;;;;;;;;;;5019767;28;20119;-72
2021/12/15 13:10:51;;;;;;;7.95;3.95;;;;;;;;;;5021741;28;20041;-72
2021/12/15 13:13:20;;;;;;;6.97;4.38;;;;;;;;;;5020698;28;20050;-72
2021/12/15 13:16:08;;;;;;;7.30;3.95;;;;;;;;;;5021605;28;20046;-72
2021/12/15 13:18:49;;;;;;;8.88;4.55;;;;;;;;;;5021620;28;20048;-72
2021/12/15 13:21:19;;;;;;;8.43;4.80;;;;;;;;;;5021730;28;20045;-74
2021/12/15 13:23:57;;;;;;;9.00;5.53;;;;;;;;;;5020974;28;20319;-74
2021/12/15 13:29:48;;;;;;;8.50;5.22;;;;;;;;;;5021118;28;20053;-74
2021/12/15 13:32:13;;;;;;;10.23;5.85;;;;;;;;;;5021370;28;20041;-74
2021/12/15 13:34:49;;;;;;;11.45;6.28;;;;;;;;;;5020995;28;20126;-74
2021/12/15 13:37:57;;;;;;;9.15;5.40;;;;;;;;;;5021408;28;20502;-70
2021/12/15 13:41:04;;;;;;;15.45;6.45;;;;;;;;;;5020932;28;20073;-71
2021/12/15 13:44:02;;;;;;;12.60;6.00;;;;;;;;;;5017733;28;20112;-71
2021/12/15 13:46:27;;;;;;;12.18;6.80;;;;;;;;;;5017169;28;20049;-70
2021/12/15 13:48:54;;;;;;;13.32;7.03;;;;;;;;;;5017939;28;20042;-70
2021/12/15 13:51:57;;;;;;;12.45;6.38;;;;;;;;;;5018434;28;20075;-71
2021/12/15 13:54:37;;;;;;;13.10;6.35;;;;;;;;;;5019016;28;20025;-71
2021/12/15 13:57:16;;;;;;;9.23;5.72;;;;;;;;;;5018388;28;20540;-71
2021/12/15 13:59:51;;;;;;;9.93;5.20;;;;;;;;;;5021092;28;20033;-71
2021/12/15 14:02:26;;;;;;;7.97;5.35;;;;;;;;;;5021042;28;20041;-71
2021/12/15 14:04:55;;;;;;;7.38;4.88;;;;;;;;;;5020822;28;20033;-70
2021/12/15 14:07:30;;;;;;;9.68;5.90;;;;;;;;;;5019332;28;20045;-71
2021/12/15 14:10:02;;;;;;;11.95;6.30;;;;;;;;;;5021147;28;20051;-71
2021/12/15 14:12:46;;;;;;;13.07;6.15;;;;;;;;;;5020870;28;20048;-70
2021/12/15 14:15:26;;;;;;;11.73;5.93;;;;;;;;;;5020537;28;20029;-71
2021/12/15 14:17:57;;;;;;;11.50;6.88;;;;;;;;;;5017908;28;20124;-74
2021/12/15 14:20:23;;;;;;;9.10;5.78;;;;;;;;;;5020781;28;20095;-73
2021/12/15 14:23:04;;;;;;;13.40;6.68;;;;;;;;;;5020373;28;20021;-75
2021/12/15 14:25:34;;;;;;;11.10;6.68;;;;;;;;;;5020702;28;20450;-73
2021/12/15 14:28:12;;;;;;;14.82;6.63;;;;;;;;;;5021042;28;20037;-73
2021/12/15 14:30:39;;;;;;;13.60;7.13;;;;;;;;;;5020536;28;20088;-73
2021/12/15 14:33:17;;;;;;;12.25;7.05;;;;;;;;;;5021173;28;20033;-74
2021/12/15 14:35:43;;;;;;;12.30;7.07;;;;;;;;;;5021211;28;20072;-73
2021/12/15 14:38:08;;;;;;;12.35;7.07;;;;;;;;;;5020750;28;20061;-73
2021/12/15 14:40:34;;;;;;;17.95;7.85;;;;;;;;;;5019779;28;20053;-72
2021/12/15 14:42:59;;;;;;;17.02;7.50;;;;;;;;;;5020514;28;20045;-73
2021/12/15 14:45:25;;;;;;;19.65;8.35;;;;;;;;;;5020644;28;20044;-73
2021/12/15 14:47:50;;;;;;;16.23;7.75;;;;;;;;;;5020014;28;20029;-73
2021/12/15 14:50:19;;;;;;;25.75;11.50;;;;;;;;;;5017690;28;20060;-72
2021/12/15 14:52:56;;;;;;;37.20;13.40;;;;;;;;;;5020726;28;20048;-73
2021/12/15 14:55:31;;;;;;;17.00;8.30;;;;;;;;;;5019441;28;20094;-75
2021/12/15 14:57:57;;;;;;;14.15;7.85;;;;;;;;;;5020076;28;20124;-73
2021/12/15 15:00:33;;;;;;;16.90;7.50;;;;;;;;;;5019577;28;20103;-74
2021/12/15 15:03:05;;;;;;;15.68;7.80;;;;;;;;;;5019614;28;20045;-72
2021/12/15 15:05:33;;;;;;;;;;;;;;;;;;5020856;28;20029;-74
2021/12/15 15:08:05;;;;;;;12.65;7.57;;;;;;;;;;5023917;28;19924;-75
2021/12/15 15:10:33;;;;;;;13.02;7.75;;;;;;;;;;5023104;28;20102;-73
2021/12/15 15:13:00;;;;;;;17.85;8.30;;;;;;;;;;5022153;28;20056;-73
2021/12/15 15:15:32;;;;;;;16.15;7.25;;;;;;;;;;5023049;28;20075;-71
2021/12/15 15:18:05;;;;;;;13.02;7.82;;;;;;;;;;5022086;28;20045;-73
2021/12/15 15:20:37;;;;;;;14.93;8.05;;;;;;;;;;5023955;28;20037;-73
2021/12/15 15:23:07;;;;;;;15.57;7.28;;;;;;;;;;5024326;28;20514;-74
2021/12/15 15:25:35;;;;;;;12.10;7.03;;;;;;;;;;5023524;28;20044;-71
2021/12/15 15:28:05;;;;;;;15.00;8.10;;;;;;;;;;5024022;28;20383;-73
2021/12/15 15:30:33;;;;;;;14.27;7.75;;;;;;;;;;5023832;28;21024;-71
2021/12/15 15:33:22;;;;;;;14.75;7.53;;;;;;;;;;5024085;28;20033;-71
2021/12/15 15:35:52;;;;;;;13.57;7.85;;;;;;;;;;5022848;28;20037;-69
2021/12/15 15:38:20;;;;;;;12.65;7.40;;;;;;;;;;5023079;28;20471;-69
2021/12/15 15:40:53;;;;;;;13.18;7.50;;;;;;;;;;5023570;28;20052;-70
2021/12/15 15:43:32;;;;;;;14.50;7.43;;;;;;;;;;5024065;28;20486;-69
2021/12/15 15:45:58;;;;;;;14.63;7.45;;;;;;;;;;5022503;28;20406;-69
2021/12/15 15:48:27;;;;;;;13.98;8.23;;;;;;;;;;5023448;28;20049;-69
2021/12/15 15:51:06;;;;;;;15.02;8.07;;;;;;;;;;5023973;28;20078;-70
2021/12/15 15:53:33;;;;;;;14.15;7.82;;;;;;;;;;5023895;28;20048;-69
2021/12/15 15:56:07;;;;;;;13.65;7.40;;;;;;;;;;5023389;28;20029;-69
2021/12/15 15:58:34;;;;;;;15.80;8.07;;;;;;;;;;5022990;28;21069;-70
2021/12/15 16:01:02;;;;;;;14.07;7.65;;;;;;;;;;5022977;28;20367;-70
2021/12/15 16:03:30;;;;;;;15.80;8.32;;;;;;;;;;5023718;28;20110;-70
2021/12/15 16:05:58;;;;;;;16.55;8.85;;;;;;;;;;5023069;28;20069;-69
2021/12/15 16:08:27;;;;;;;12.57;7.75;;;;;;;;;;5023198;28;20029;-70
2021/12/15 16:10:55;;;;;;;14.27;7.80;;;;;;;;;;5024480;28;20064;-69
2021/12/15 16:13:26;;;;;;;15.82;8.05;;;;;;;;;;5024641;28;20120;-69